Time;durP1;ratioP1;P1;durP2;ratioP2;P2;SDS_P1;SDS_P2;PMS_P1;PMS_P2;Temp;Humidity;BMP_temperature;BMP_pressure;BME280_temperature;BME280_humidity;BME280_pressure;Samples;Min_cycle;Max_cycle;Signal;HPM_P1;HPM_P2
2024/03/15 00:04:28;;;;;;;5.88;5.03;;;;;;;14.05;100.00;100528.56;10500669;28;20080;-69
2024/03/15 00:09:28;;;;;;;8.40;6.28;;;;;;;14.08;100.00;100523.47;10500307;28;20032;-69
2024/03/15 00:14:29;;;;;;;7.10;6.47;;;;;;;14.06;100.00;100522.03;10500306;28;20025;-69
2024/03/15 00:19:29;;;;;;;8.30;7.03;;;;;;;14.05;100.00;100518.50;10499874;28;20081;-69
2024/03/15 00:24:30;;;;;;;9.93;6.60;;;;;;;14.00;100.00;100521.06;10500104;28;20024;-69
2024/03/15 00:29:31;;;;;;;11.88;5.57;;;;;;;13.82;100.00;100527.38;10481871;28;20108;-69
2024/03/15 00:34:31;;;;;;;17.02;6.70;;;;;;;13.75;100.00;100526.59;10501341;28;20031;-69
2024/03/15 00:39:31;;;;;;;9.38;6.50;;;;;;;13.68;100.00;100523.13;10500522;28;20044;-69
2024/03/15 00:44:32;;;;;;;8.55;6.65;;;;;;;13.70;100.00;100519.13;10500723;28;20036;-69
2024/03/15 00:49:34;;;;;;;13.30;6.07;;;;;;;13.72;100.00;100513.47;10499211;28;20029;-69
2024/03/15 00:54:35;;;;;;;6.93;6.22;;;;;;;13.65;100.00;100529.84;10498322;28;20482;-69
2024/03/15 00:59:35;;;;;;;15.30;7.22;;;;;;;13.63;100.00;100521.09;10498666;28;20059;-69
2024/03/15 01:04:35;;;;;;;9.43;6.53;;;;;;;13.45;100.00;100512.94;10514362;28;20135;-69
2024/03/15 01:09:36;;;;;;;15.75;5.95;;;;;;;13.35;100.00;100512.63;10498828;28;20115;-69
2024/03/15 01:14:36;;;;;;;8.10;6.18;;;;;;;13.32;100.00;100516.63;10498280;28;20436;-69
2024/03/15 01:19:37;;;;;;;7.18;6.47;;;;;;;13.24;100.00;100506.88;10498131;28;20036;-69
2024/03/15 01:24:38;;;;;;;6.55;5.85;;;;;;;13.13;100.00;100504.88;10499470;28;20024;-69
2024/03/15 01:29:38;;;;;;;9.32;6.07;;;;;;;12.93;100.00;100505.06;10497745;28;20123;-69
2024/03/15 01:34:38;;;;;;;19.17;6.20;;;;;;;12.84;100.00;100508.28;10498426;28;20036;-68
2024/03/15 01:39:39;;;;;;;7.45;6.50;;;;;;;12.72;100.00;100508.16;10497361;28;20376;-69
2024/03/15 01:44:48;;;;;;;6.78;5.10;;;;;;;12.55;100.00;100510.59;10495632;28;20064;-68
2024/03/15 01:49:48;;;;;;;8.60;6.38;;;;;;;12.41;100.00;100507.16;10495838;28;20506;-67
2024/03/15 01:54:49;;;;;;;13.90;6.40;;;;;;;12.34;100.00;100500.91;10495356;28;20025;-66
2024/03/15 01:59:49;;;;;;;12.60;6.22;;;;;;;12.31;100.00;100491.31;10496925;28;20363;-68
2024/03/15 02:04:55;;;;;;;7.65;6.43;;;;;;;12.20;100.00;100493.91;10495338;28;20055;-69
2024/03/15 02:09:57;;;;;;;14.95;6.18;;;;;;;12.15;100.00;100497.25;10496810;28;20068;-68
2024/03/15 02:14:57;;;;;;;8.55;6.22;;;;;;;12.07;100.00;100492.09;10479066;28;20036;-70
2024/03/15 02:19:58;;;;;;;0.50;0.50;;;;;;;12.01;100.00;100491.06;10497533;28;20041;-70
2024/03/15 02:24:58;;;;;;;0.88;0.88;;;;;;;11.99;100.00;100489.63;10494972;28;20039;-70
2024/03/15 02:29:59;;;;;;;0.70;0.70;;;;;;;11.97;100.00;100475.47;10494358;28;20185;-69
2024/03/15 02:34:59;;;;;;;1.55;1.40;;;;;;;12.01;100.00;100492.97;10497602;28;20119;-69
2024/03/15 02:40:00;;;;;;;0.43;0.43;;;;;;;11.98;100.00;100486.09;10495508;28;20494;-70
2024/03/15 02:45:00;;;;;;;2.42;2.33;;;;;;;11.97;100.00;100486.31;10496621;28;20024;-69
2024/03/15 02:50:00;;;;;;;0.40;0.40;;;;;;;12.02;100.00;100486.47;10495190;28;20024;-68
2024/03/15 02:55:01;;;;;;;0.60;0.60;;;;;;;12.06;100.00;100482.28;10495676;28;20032;-70
2024/03/15 03:00:01;;;;;;;0.40;0.40;;;;;;;12.06;100.00;100488.56;10496522;28;20033;-69
2024/03/15 03:05:02;;;;;;;2.05;1.95;;;;;;;12.10;100.00;100489.78;10495524;28;20091;-70
2024/03/15 03:10:03;;;;;;;1.65;1.60;;;;;;;12.12;100.00;100492.25;10495662;28;20036;-72
2024/03/15 03:15:04;;;;;;;1.13;1.13;;;;;;;12.14;100.00;100492.06;10499870;28;20349;-69
2024/03/15 03:20:11;;;;;;;0.63;0.63;;;;;;;12.08;100.00;100497.28;10502755;28;20056;-70
2024/03/15 03:25:13;;;;;;;0.50;0.50;;;;;;;12.17;100.00;100499.75;10502172;28;20031;-70
2024/03/15 03:30:13;;;;;;;1.90;1.80;;;;;;;12.16;100.00;100492.69;10503366;28;20028;-69
2024/03/15 03:35:14;;;;;;;0.50;0.50;;;;;;;12.21;100.00;100496.38;10504444;28;20081;-69
2024/03/15 03:40:15;;;;;;;0.63;0.63;;;;;;;12.24;100.00;100490.53;10501544;28;20497;-70
2024/03/15 03:45:19;;;;;;;0.30;0.30;;;;;;;12.23;100.00;100496.19;10503675;28;20135;-70
2024/03/15 03:50:19;;;;;;;0.40;0.40;;;;;;;12.24;100.00;100500.56;10502747;28;20032;-70
2024/03/15 03:55:20;;;;;;;1.08;1.08;;;;;;;12.22;100.00;100499.94;10502494;28;20031;-70
2024/03/15 04:00:21;;;;;;;0.43;0.43;;;;;;;12.18;100.00;100498.72;10501447;28;20486;-69
2024/03/15 04:05:21;;;;;;;22.58;2.95;;;;;;;12.01;100.00;100504.66;10501683;28;20048;-69
2024/03/15 04:10:22;;;;;;;23.85;3.30;;;;;;;12.05;100.00;100507.75;10483315;28;20059;-69
2024/03/15 04:15:22;;;;;;;0.43;0.43;;;;;;;11.91;100.00;100508.88;10500499;28;20100;-69
2024/03/15 04:20:23;;;;;;;0.60;0.60;;;;;;;11.83;100.00;100515.34;10501576;28;20040;-69
2024/03/15 04:25:24;;;;;;;0.75;0.75;;;;;;;11.80;100.00;100510.34;10500028;28;20017;-70
2024/03/15 04:30:25;;;;;;;1.90;1.88;;;;;;;11.68;100.00;100504.78;10500312;28;20116;-70
2024/03/15 04:35:27;;;;;;;0.60;0.60;;;;;;;11.67;100.00;100494.13;10499703;28;20052;-69
2024/03/15 04:40:28;;;;;;;0.40;0.40;;;;;;;11.62;100.00;100498.31;10501127;28;20243;-69
2024/03/15 04:45:29;;;;;;;0.30;0.30;;;;;;;11.62;100.00;100511.06;10499722;28;20142;-70
2024/03/15 04:50:30;;;;;;;0.57;0.57;;;;;;;11.69;100.00;100502.88;10499084;28;20464;-70
2024/03/15 04:55:30;;;;;;;1.17;1.17;;;;;;;11.60;100.00;100502.28;10500288;28;20028;-69
2024/03/15 05:00:31;;;;;;;0.75;0.75;;;;;;;11.58;100.00;100502.50;10498113;28;20039;-71
2024/03/15 05:05:31;;;;;;;0.60;0.60;;;;;;;11.64;100.00;100508.94;10497837;28;20384;-70
2024/03/15 05:10:31;;;;;;;0.88;0.88;;;;;;;11.61;100.00;100512.06;10498742;28;20028;-71
2024/03/15 05:15:33;;;;;;;0.60;0.60;;;;;;;11.57;100.00;100505.44;10497423;28;20078;-71
2024/03/15 05:20:33;;;;;;;0.50;0.50;;;;;;;11.56;100.00;100511.91;10498447;28;20035;-70
2024/03/15 05:25:36;;;;;;;0.43;0.43;;;;;;;11.50;100.00;100510.88;10498992;28;20432;-69
2024/03/15 05:30:36;;;;;;;0.52;0.52;;;;;;;11.58;100.00;100510.66;10497622;28;20115;-70
2024/03/15 05:35:37;;;;;;;0.43;0.43;;;;;;;11.61;100.00;100506.66;10497160;28;20519;-70
2024/03/15 05:40:38;;;;;;;1.15;1.15;;;;;;;11.54;100.00;100509.38;10497574;28;20032;-70
2024/03/15 05:45:38;;;;;;;3.35;2.70;;;;;;;11.38;100.00;100507.97;10495932;28;20443;-70
2024/03/15 05:50:38;;;;;;;0.65;0.65;;;;;;;11.36;100.00;100501.94;10496985;28;20020;-70
2024/03/15 05:55:39;;;;;;;2.22;2.10;;;;;;;11.40;100.00;100508.59;10495658;28;20039;-71
2024/03/15 06:00:39;;;;;;;2.47;2.38;;;;;;;11.41;100.00;100514.84;10439291;28;20340;-73
2024/03/15 06:05:39;;;;;;;0.80;0.80;;;;;;;11.41;100.00;100512.97;10495973;28;20048;-72
2024/03/15 06:10:40;;;;;;;0.47;0.47;;;;;;;11.47;100.00;100515.88;10495918;28;20484;-71
2024/03/15 06:15:41;;;;;;;0.50;0.50;;;;;;;11.48;100.00;100517.56;10496745;28;20040;-71
2024/03/15 06:20:41;;;;;;;0.60;0.60;;;;;;;11.46;100.00;100506.09;10494673;28;20097;-69
2024/03/15 06:25:43;;;;;;;0.70;0.70;;;;;;;11.46;100.00;100515.06;10497306;28;20028;-71
2024/03/15 06:30:46;;;;;;;0.50;0.50;;;;;;;11.46;100.00;100512.34;10495023;28;20029;-70
2024/03/15 06:35:54;;;;;;;5.00;3.97;;;;;;;11.57;100.00;100524.41;10496162;28;20360;-70
2024/03/15 06:41:10;;;;;;;0.43;0.43;;;;;;;11.62;100.00;100530.03;10494637;28;20513;-69
2024/03/15 06:46:24;;;;;;;1.15;1.10;;;;;;;11.68;100.00;100529.19;10496273;28;20360;-69
2024/03/15 06:56:43;;;;;;;0.75;0.75;;;;;;;11.92;100.00;100534.97;10502863;28;20032;-72
2024/03/15 07:01:43;;;;;;;0.60;0.60;;;;;;;12.02;100.00;100547.00;10504141;28;20032;-70
2024/03/15 07:06:44;;;;;;;0.40;0.40;;;;;;;12.14;100.00;100546.34;10504067;28;20048;-71
2024/03/15 07:11:47;;;;;;;0.70;0.70;;;;;;;12.10;100.00;100563.06;10504965;28;20048;-70
2024/03/15 07:16:48;;;;;;;1.15;1.13;;;;;;;12.21;100.00;100545.25;10503715;28;20161;-70
2024/03/15 07:21:49;;;;;;;0.63;0.63;;;;;;;12.49;100.00;100555.75;10502148;28;20028;-70
2024/03/15 07:26:49;;;;;;;0.47;0.47;;;;;;;12.63;100.00;100559.19;10502982;28;20033;-70
2024/03/15 07:31:50;;;;;;;0.40;0.40;;;;;;;12.97;100.00;100554.34;10501427;28;20040;-70
2024/03/15 07:36:56;;;;;;;0.40;0.40;;;;;;;13.00;100.00;100554.75;10502953;28;20028;-71
2024/03/15 07:41:59;;;;;;;0.50;0.50;;;;;;;13.22;100.00;100552.47;10502814;28;20341;-71
2024/03/15 07:46:59;;;;;;;1.98;1.38;;;;;;;13.26;100.00;100555.59;10502594;28;20114;-71
2024/03/15 07:52:00;;;;;;;18.27;6.05;;;;;;;13.38;100.00;100555.69;10501916;28;20036;-71
2024/03/15 07:57:00;;;;;;;20.55;5.75;;;;;;;13.10;100.00;100551.53;10501966;28;20460;-71
2024/03/15 08:02:03;;;;;;;11.57;4.93;;;;;;;13.52;100.00;100553.66;10499981;28;20442;-72
2024/03/15 08:07:03;;;;;;;21.67;5.10;;;;;;;14.52;100.00;100545.13;10499793;28;20063;-72
2024/03/15 08:12:06;;;;;;;12.90;4.22;;;;;;;15.04;100.00;100550.78;10501846;28;20029;-72
2024/03/15 08:17:06;;;;;;;15.40;4.93;;;;;;;15.09;100.00;100554.47;10501908;28;20070;-70
2024/03/15 08:22:07;;;;;;;8.35;4.38;;;;;;;14.70;100.00;100557.84;10501663;28;20089;-72
2024/03/15 08:27:09;;;;;;;10.05;3.30;;;;;;;15.09;100.00;100556.34;10499544;28;20050;-71
2024/03/15 08:32:11;;;;;;;10.27;3.78;;;;;;;14.87;100.00;100565.13;10499264;28;20486;-71
2024/03/15 08:37:11;;;;;;;5.60;3.60;;;;;;;14.83;100.00;100579.44;10499086;28;20119;-72
2024/03/15 08:42:12;;;;;;;15.98;4.68;;;;;;;14.55;100.00;100570.00;10499484;28;20052;-69
2024/03/15 08:47:12;;;;;;;13.10;4.10;;;;;;;14.31;100.00;100581.84;10499997;28;20066;-72
2024/03/15 08:52:15;;;;;;;7.13;4.10;;;;;;;14.31;100.00;100587.28;10500459;28;20040;-72
2024/03/15 08:57:16;;;;;;;5.35;4.05;;;;;;;14.08;100.00;100586.09;10498335;28;20059;-70
2024/03/15 09:02:17;;;;;;;5.95;4.05;;;;;;;14.08;100.00;100594.28;10498293;28;20056;-71
2024/03/15 09:07:18;;;;;;;4.68;3.70;;;;;;;14.42;100.00;100584.63;10499445;28;20041;-71
2024/03/15 09:12:19;;;;;;;12.90;5.13;;;;;;;14.14;100.00;100582.47;10496864;28;20033;-70
2024/03/15 09:17:19;;;;;;;7.55;4.90;;;;;;;13.91;100.00;100583.19;10497678;28;20033;-70
2024/03/15 09:22:19;;;;;;;13.18;4.60;;;;;;;13.90;100.00;100584.22;10499064;28;20032;-71
2024/03/15 09:27:21;;;;;;;5.03;4.18;;;;;;;14.39;100.00;100567.91;10500616;28;20337;-70
2024/03/15 09:32:21;;;;;;;8.98;4.38;;;;;;;14.16;100.00;100574.88;10498504;28;20041;-71
2024/03/15 09:37:23;;;;;;;8.57;4.13;;;;;;;13.79;100.00;100589.59;10498719;28;20035;-71
2024/03/15 09:42:23;;;;;;;4.85;4.35;;;;;;;13.78;100.00;100590.63;10497437;28;20372;-71
2024/03/15 09:47:24;;;;;;;20.08;4.63;;;;;;;13.92;100.00;100597.63;10495632;28;20032;-71
2024/03/15 09:52:24;;;;;;;9.50;4.78;;;;;;;14.34;100.00;100586.81;10496587;28;20029;-70
2024/03/15 09:57:25;;;;;;;13.48;4.65;;;;;;;15.19;100.00;100588.50;10498591;28;20058;-70
2024/03/15 10:02:26;;;;;;;7.22;4.20;;;;;;;14.92;100.00;100583.47;10495998;28;20028;-72
2024/03/15 10:07:28;;;;;;;4.75;2.97;;;;;;;14.42;100.00;100594.66;10496370;28;20086;-71
2024/03/15 10:12:28;;;;;;;6.70;3.70;;;;;;;14.08;100.00;100588.00;10495066;28;20079;-71
2024/03/15 10:17:31;;;;;;;7.68;5.07;;;;;;;14.06;100.00;100601.81;10495517;28;20060;-70
2024/03/15 10:22:31;;;;;;;5.55;4.35;;;;;;;14.02;100.00;100600.63;10496062;28;20448;-70
2024/03/15 10:27:31;;;;;;;12.43;4.57;;;;;;;13.78;100.00;100590.63;10497693;28;20025;-70
2024/03/15 10:32:32;;;;;;;3.97;3.05;;;;;;;13.92;100.00;100594.88;10495593;28;20128;-70
2024/03/15 10:37:32;;;;;;;7.93;3.15;;;;;;;14.09;100.00;100589.66;10495600;28;20078;-70
2024/03/15 10:42:33;;;;;;;8.98;5.03;;;;;;;14.02;100.00;100597.91;10495751;28;20029;-71
2024/03/15 10:47:33;;;;;;;2.97;2.78;;;;;;;13.88;100.00;100596.38;10478704;28;20062;-70
2024/03/15 10:52:34;;;;;;;12.30;3.22;;;;;;;13.85;100.00;100615.91;10494591;28;20406;-71
2024/03/15 10:57:34;;;;;;;6.05;3.75;;;;;;;13.97;100.00;100597.75;10478636;28;20028;-69
2024/03/15 11:02:34;;;;;;;9.00;4.20;;;;;;;14.93;100.00;100596.03;10495851;28;20036;-70
2024/03/15 11:07:35;;;;;;;3.58;2.92;;;;;;;14.99;100.00;100586.94;10494172;28;20052;-69
2024/03/15 11:12:36;;;;;;;4.78;3.13;;;;;;;14.71;100.00;100586.75;10493462;28;20111;-71
2024/03/15 11:17:37;;;;;;;6.55;3.83;;;;;;;14.57;100.00;100607.91;10495271;28;20020;-70
2024/03/15 11:22:37;;;;;;;6.18;3.17;;;;;;;14.54;100.00;100598.31;10494490;28;20036;-73
2024/03/15 11:27:59;;;;;;;5.80;3.10;;;;;;;15.19;100.00;100604.88;10493680;28;20094;-70
2024/03/15 11:33:00;;;;;;;5.47;2.50;;;;;;;15.23;100.00;100606.91;10493766;28;20086;-71
2024/03/15 11:38:00;;;;;;;9.15;3.08;;;;;;;15.06;100.00;100600.47;10501455;28;20097;-70
2024/03/15 11:43:00;;;;;;;2.40;2.20;;;;;;;15.10;100.00;100604.41;10503091;28;20055;-69
2024/03/15 11:48:01;;;;;;;3.45;2.40;;;;;;;15.04;100.00;100597.97;10501774;28;20092;-70
2024/03/15 11:53:03;;;;;;;4.50;2.25;;;;;;;14.61;100.00;100607.25;10501457;28;20036;-69
2024/03/15 11:58:03;;;;;;;3.90;3.35;;;;;;;14.64;100.00;100605.91;10501350;28;20051;-70
2024/03/15 12:03:08;;;;;;;4.15;2.28;;;;;;;14.65;100.00;100618.50;10501672;28;20116;-70
2024/03/15 12:08:21;;;;;;;12.50;3.28;;;;;;;14.49;100.00;100617.22;10483879;28;20484;-71
2024/03/15 12:13:31;;;;;;;4.32;3.45;;;;;;;14.62;100.00;100611.63;10501134;28;20079;-70
2024/03/15 12:18:31;;;;;;;11.30;3.67;;;;;;;14.76;100.00;100600.53;10483781;28;20024;-70
2024/03/15 12:23:32;;;;;;;11.07;4.03;;;;;;;14.92;100.00;100613.47;10499394;28;20033;-70
2024/03/15 12:28:32;;;;;;;11.35;3.80;;;;;;;15.28;100.00;100598.84;10499489;28;20082;-71
2024/03/15 12:33:33;;;;;;;12.88;3.80;;;;;;;15.66;100.00;100602.97;10500381;28;20093;-71
2024/03/15 12:38:34;;;;;;;4.97;3.45;;;;;;;15.52;100.00;100586.03;10500786;28;20039;-71
2024/03/15 12:43:34;;;;;;;7.13;3.15;;;;;;;15.46;100.00;100595.16;10500584;28;20029;-71
2024/03/15 12:48:35;;;;;;;9.43;4.15;;;;;;;15.53;100.00;100606.78;10497665;28;20028;-71
2024/03/15 12:53:35;;;;;;;11.88;4.45;;;;;;;16.14;100.00;100580.00;10498350;28;20020;-71
2024/03/15 12:58:36;;;;;;;6.25;3.63;;;;;;;16.11;100.00;100601.53;10500160;28;20397;-70
2024/03/15 13:03:36;;;;;;;11.98;5.05;;;;;;;15.94;100.00;100585.88;10498666;28;20040;-70
2024/03/15 13:08:37;;;;;;;12.25;4.07;;;;;;;16.06;100.00;100580.41;10498226;28;20146;-69
2024/03/15 13:13:37;;;;;;;8.15;4.20;;;;;;;16.04;100.00;100588.00;10498475;28;20111;-71
2024/03/15 13:18:39;;;;;;;10.20;3.67;;;;;;;16.29;100.00;100584.97;10498547;28;20044;-71
2024/03/15 13:23:39;;;;;;;12.18;5.07;;;;;;;16.51;100.00;100585.13;10499429;28;20114;-72
2024/03/15 13:28:41;;;;;;;12.38;3.25;;;;;;;16.83;100.00;100587.38;10496593;28;20055;-71
2024/03/15 13:33:42;;;;;;;10.63;3.88;;;;;;;16.98;100.00;100581.34;10498364;28;20081;-71
2024/03/15 13:38:46;;;;;;;10.20;3.97;;;;;;;16.50;100.00;100581.56;10496933;28;20024;-70
2024/03/15 13:43:47;;;;;;;13.35;3.35;;;;;;;16.17;100.00;100573.25;10495853;28;20036;-71
2024/03/15 13:48:47;;;;;;;12.35;4.25;;;;;;;15.61;100.00;100580.22;10497510;28;20368;-70
2024/03/15 13:53:47;;;;;;;13.02;3.30;;;;;;;15.69;100.00;100572.50;10497040;28;20209;-70
2024/03/15 13:58:48;;;;;;;8.77;4.93;;;;;;;16.41;100.00;100563.88;10495836;28;20043;-70
2024/03/15 14:03:48;;;;;;;7.68;4.10;;;;;;;16.44;100.00;100571.59;10495691;28;20048;-70
2024/03/15 14:08:50;;;;;;;19.48;3.83;;;;;;;16.23;100.00;100570.38;10495583;28;20438;-71
2024/03/15 14:13:53;;;;;;;12.57;4.10;;;;;;;15.55;100.00;100571.91;10496406;28;20028;-70
2024/03/15 14:18:53;;;;;;;10.48;3.47;;;;;;;15.11;100.00;100581.50;10495457;28;20394;-71
2024/03/15 14:23:54;;;;;;;10.25;3.83;;;;;;;15.22;100.00;100580.69;10495487;28;20044;-69
2024/03/15 14:28:54;;;;;;;15.05;3.38;;;;;;;15.26;100.00;100581.06;10496192;28;20044;-71
2024/03/15 14:33:54;;;;;;;14.93;4.55;;;;;;;15.77;100.00;100580.34;10496535;28;20115;-69
2024/03/15 14:38:55;;;;;;;16.77;4.97;;;;;;;16.24;100.00;100572.03;10495271;28;20028;-70
2024/03/15 14:43:55;;;;;;;16.90;6.20;;;;;;;16.59;100.00;100571.06;10495680;28;20048;-69
2024/03/15 14:48:56;;;;;;;17.08;5.43;;;;;;;16.35;100.00;100567.59;10495735;28;20040;-70
2024/03/15 14:53:58;;;;;;;18.15;6.25;;;;;;;16.45;100.00;100581.44;10496475;28;20334;-69
2024/03/15 14:58:58;;;;;;;18.85;5.75;;;;;;;16.30;100.00;100562.03;10495530;28;20033;-72
2024/03/15 15:03:59;;;;;;;19.50;5.43;;;;;;;16.09;100.00;100563.53;10495113;28;20040;-72
2024/03/15 15:08:59;;;;;;;27.63;7.20;;;;;;;15.56;100.00;100561.81;10495895;28;20068;-71
2024/03/15 15:14:00;;;;;;;18.23;6.18;;;;;;;15.33;100.00;100554.47;10502031;28;20477;-70
2024/03/15 15:19:00;;;;;;;8.85;4.53;;;;;;;15.21;100.00;100564.56;10503569;28;20048;-71
2024/03/15 15:24:05;;;;;;;20.67;7.00;;;;;;;14.74;100.00;100554.44;10502844;28;20052;-69
2024/03/15 15:29:05;;;;;;;16.35;6.03;;;;;;;14.42;100.00;100567.41;10502719;28;20478;-70
2024/03/15 15:34:05;;;;;;;20.48;6.07;;;;;;;14.21;100.00;100559.78;10502877;28;20032;-69
2024/03/15 15:39:06;;;;;;;14.95;6.88;;;;;;;14.27;100.00;100565.13;10501381;28;20037;-71
2024/03/15 15:44:06;;;;;;;18.15;7.80;;;;;;;14.25;100.00;100574.59;10501813;28;20037;-70
2024/03/15 15:49:10;;;;;;;24.65;6.43;;;;;;;14.31;100.00;100571.78;10502394;28;20032;-69
2024/03/15 15:54:11;;;;;;;27.23;8.05;;;;;;;14.23;100.00;100563.06;10501588;28;20033;-70
2024/03/15 15:59:11;;;;;;;22.08;7.70;;;;;;;13.95;100.00;100575.38;10501767;28;20138;-71
2024/03/15 16:04:12;;;;;;;24.35;6.95;;;;;;;13.85;100.00;100583.25;10500261;28;20028;-69
2024/03/15 16:09:16;;;;;;;19.38;7.60;;;;;;;13.73;100.00;100581.28;10504828;28;20076;-72
2024/03/15 16:14:16;;;;;;;16.73;5.28;;;;;;;13.46;100.00;100572.56;10500667;28;20032;-71
2024/03/15 16:19:17;;;;;;;15.98;7.43;;;;;;;13.22;100.00;100581.53;10499860;28;20040;-70
2024/03/15 16:24:17;;;;;;;26.95;6.53;;;;;;;13.03;100.00;100589.63;10499643;28;20036;-69
2024/03/15 16:29:18;;;;;;;20.52;6.07;;;;;;;12.76;100.00;100586.31;10499515;28;20464;-71
2024/03/15 16:34:18;;;;;;;19.08;6.18;;;;;;;12.75;100.00;100591.94;10501249;28;20086;-69
2024/03/15 16:39:19;;;;;;;23.63;6.13;;;;;;;12.86;100.00;100604.84;10500119;28;20110;-69
2024/03/15 16:44:19;;;;;;;29.17;7.45;;;;;;;12.71;100.00;100607.84;10500498;28;20452;-70
2024/03/15 16:49:20;;;;;;;30.88;7.55;;;;;;;12.66;100.00;100607.66;10501438;28;20321;-69
2024/03/15 16:54:20;;;;;;;20.27;8.43;;;;;;;12.45;100.00;100610.72;10500787;28;20044;-70
2024/03/15 16:59:21;;;;;;;28.08;8.68;;;;;;;12.39;100.00;100630.59;10500684;28;20029;-71
2024/03/15 17:04:21;;;;;;;27.40;8.27;;;;;;;12.19;100.00;100628.81;10499489;28;20025;-71
2024/03/15 17:09:24;;;;;;;26.63;7.60;;;;;;;12.07;100.00;100609.63;10498714;28;20076;-70
2024/03/15 17:14:25;;;;;;;28.02;8.57;;;;;;;12.10;100.00;100619.22;10497639;28;20067;-69
2024/03/15 17:19:25;;;;;;;23.75;8.05;;;;;;;12.18;100.00;100624.41;10497156;28;20174;-70
2024/03/15 17:24:26;;;;;;;33.30;7.45;;;;;;;12.12;100.00;100630.69;10497676;28;20039;-70
2024/03/15 17:29:26;;;;;;;28.75;7.55;;;;;;;11.89;100.00;100638.50;10499591;28;20081;-70
2024/03/15 17:34:26;;;;;;;30.27;6.72;;;;;;;11.80;100.00;100633.25;10498598;28;20026;-71
2024/03/15 17:39:27;;;;;;;21.20;7.72;;;;;;;11.80;100.00;100648.69;10498343;28;20424;-69
2024/03/15 17:44:28;;;;;;;29.52;8.27;;;;;;;11.72;100.00;100649.78;10497348;28;20448;-69
2024/03/15 17:49:29;;;;;;;23.85;9.43;;;;;;;11.53;100.00;100650.63;10497664;28;20037;-69
2024/03/15 17:54:29;;;;;;;37.78;9.93;;;;;;;11.47;100.00;100662.31;10497198;28;20032;-69
2024/03/15 17:59:30;;;;;;;32.97;8.95;;;;;;;11.36;100.00;100663.78;10496520;28;20031;-70
2024/03/15 18:04:30;;;;;;;35.05;9.10;;;;;;;11.32;100.00;100666.06;10478512;28;20041;-70
2024/03/15 18:09:31;;;;;;;38.00;8.38;;;;;;;11.26;100.00;100658.75;10495506;28;20060;-71
2024/03/15 18:14:33;;;;;;;36.85;8.73;;;;;;;11.22;100.00;100662.91;10496069;28;20038;-70
2024/03/15 18:19:33;;;;;;;37.53;9.18;;;;;;;11.11;100.00;100666.25;10496687;28;20063;-69
2024/03/15 18:24:33;;;;;;;25.05;8.25;;;;;;;11.03;100.00;100669.16;10480536;28;20059;-69
2024/03/15 18:29:34;;;;;;;22.08;7.07;;;;;;;10.94;100.00;100685.63;10496060;28;20021;-70
2024/03/15 18:34:35;;;;;;;31.20;8.90;;;;;;;11.02;100.00;100683.75;10496511;28;20028;-69
2024/03/15 18:39:36;;;;;;;29.73;8.05;;;;;;;10.93;100.00;100696.66;10496137;28;20048;-70
2024/03/15 18:44:36;;;;;;;27.52;7.32;;;;;;;10.90;100.00;100695.19;10479902;28;20025;-70
2024/03/15 18:49:37;;;;;;;23.75;7.47;;;;;;;10.97;100.00;100686.25;10504988;28;20039;-70
2024/03/15 18:54:37;;;;;;;23.83;6.25;;;;;;;10.92;100.00;100695.81;10504854;28;20033;-70
2024/03/15 18:59:40;;;;;;;29.02;6.70;;;;;;;10.86;100.00;100687.69;10503848;28;20044;-69
2024/03/15 19:04:41;;;;;;;24.70;7.65;;;;;;;10.86;100.00;100698.50;10486446;28;20109;-69
2024/03/15 19:09:41;;;;;;;27.77;8.23;;;;;;;10.89;100.00;100701.66;10505055;28;20040;-70
2024/03/15 19:14:43;;;;;;;34.30;7.57;;;;;;;10.83;100.00;100710.59;10504108;28;20456;-69
2024/03/15 19:19:43;;;;;;;29.60;8.32;;;;;;;10.86;100.00;100722.91;10501914;28;20064;-70
2024/03/15 19:24:44;;;;;;;22.83;8.82;;;;;;;10.90;100.00;100713.31;10503032;28;20085;-71
2024/03/15 19:29:45;;;;;;;23.88;6.45;;;;;;;10.86;100.00;100706.66;10501972;28;20123;-70
2024/03/15 19:34:46;;;;;;;31.05;8.38;;;;;;;10.88;100.00;100715.38;10503411;28;20024;-70
2024/03/15 19:39:46;;;;;;;24.90;8.45;;;;;;;10.85;100.00;100715.81;10502468;28;20060;-70
2024/03/15 19:44:47;;;;;;;26.40;8.32;;;;;;;10.76;100.00;100717.88;10502485;28;20028;-71
2024/03/15 19:49:48;;;;;;;37.58;7.38;;;;;;;10.72;100.00;100713.91;10502493;28;20096;-72
2024/03/15 19:54:48;;;;;;;28.73;8.20;;;;;;;10.77;100.00;100729.53;10500975;28;20025;-71
2024/03/15 19:59:49;;;;;;;24.02;7.75;;;;;;;10.74;100.00;100725.34;10501960;28;20037;-71
2024/03/15 20:04:49;;;;;;;34.30;8.77;;;;;;;10.61;100.00;100728.00;10502519;28;20500;-71
2024/03/15 20:09:50;;;;;;;37.35;10.55;;;;;;;10.55;100.00;100734.22;10502137;28;20093;-72
2024/03/15 20:14:54;;;;;;;26.42;11.07;;;;;;;10.58;100.00;100721.13;10501995;28;20024;-71
2024/03/15 20:19:54;;;;;;;36.33;8.52;;;;;;;10.62;100.00;100735.09;10501033;28;20079;-69
2024/03/15 20:24:55;;;;;;;25.67;8.13;;;;;;;10.57;100.00;100734.88;10500800;28;20052;-71
2024/03/15 20:29:55;;;;;;;42.47;9.98;;;;;;;10.47;100.00;100729.84;10500983;28;20460;-71
2024/03/15 20:34:56;;;;;;;28.27;7.40;;;;;;;10.42;100.00;100727.72;10499806;28;20067;-73
2024/03/15 20:39:56;;;;;;;29.77;9.00;;;;;;;10.41;100.00;100730.63;10503087;28;20028;-72
2024/03/15 20:44:56;;;;;;;39.03;9.73;;;;;;;10.29;100.00;100738.47;10500559;28;20058;-70
2024/03/15 20:49:57;;;;;;;29.52;9.40;;;;;;;10.29;100.00;100752.00;10500130;28;20115;-72
2024/03/15 20:54:58;;;;;;;25.83;6.55;;;;;;;10.24;100.00;100749.00;10500333;28;20032;-71
2024/03/15 20:59:58;;;;;;;37.75;9.50;;;;;;;10.25;100.00;100754.25;10499199;28;20039;-71
2024/03/15 21:04:58;;;;;;;20.27;7.80;;;;;;;10.33;100.00;100764.09;10481195;28;20048;-71
2024/03/15 21:10:00;;;;;;;39.00;8.35;;;;;;;10.36;100.00;100771.81;10498031;28;20075;-71
2024/03/15 21:15:05;;;;;;;25.13;6.78;;;;;;;10.42;100.00;100772.91;10497220;28;20032;-70
2024/03/15 21:20:26;;;;;;;19.23;6.88;;;;;;;10.48;100.00;100763.97;10499001;28;20028;-70
2024/03/15 21:25:31;;;;;;;41.88;7.95;;;;;;;10.61;100.00;100769.47;10498049;28;20122;-71
2024/03/15 21:30:31;;;;;;;44.70;10.25;;;;;;;10.68;100.00;100780.31;10497275;28;20134;-69
2024/03/15 21:35:32;;;;;;;19.67;6.95;;;;;;;10.80;100.00;100775.19;10498263;28;20146;-71
2024/03/15 21:40:34;;;;;;;14.82;7.07;;;;;;;10.81;100.00;100783.09;10498238;28;20072;-70
2024/03/15 21:45:34;;;;;;;36.22;6.93;;;;;;;10.92;100.00;100790.66;10479907;28;20435;-71
2024/03/15 21:50:35;;;;;;;17.60;6.82;;;;;;;10.91;100.00;100785.41;10497217;28;20039;-70
2024/03/15 21:55:35;;;;;;;29.15;7.05;;;;;;;10.94;100.00;100793.13;10496940;28;20040;-69
2024/03/15 22:00:36;;;;;;;26.50;7.45;;;;;;;10.95;100.00;100805.66;10496787;28;20464;-70
2024/03/15 22:05:37;;;;;;;22.50;5.40;;;;;;;11.03;100.00;100805.47;10496527;28;20056;-70
2024/03/15 22:10:37;;;;;;;23.75;7.63;;;;;;;11.04;100.00;100798.19;10496141;28;20047;-71
2024/03/15 22:15:38;;;;;;;18.90;7.50;;;;;;;10.99;100.00;100795.25;10496482;28;20040;-70
2024/03/15 22:20:38;;;;;;;16.50;5.75;;;;;;;11.05;100.00;100802.56;10497437;28;20040;-69
2024/03/15 22:25:38;;;;;;;25.80;6.85;;;;;;;11.05;100.00;100800.69;10497463;28;20028;-69
2024/03/15 22:30:39;;;;;;;24.15;8.20;;;;;;;10.97;100.00;100802.75;10496573;28;20040;-69
2024/03/15 22:35:39;;;;;;;29.70;10.95;;;;;;;10.96;100.00;100806.50;10497075;28;20063;-69
2024/03/15 22:40:40;;;;;;;30.73;7.70;;;;;;;11.07;100.00;100804.06;10496134;28;20040;-68
2024/03/15 22:45:41;;;;;;;32.63;10.60;;;;;;;11.02;100.00;100816.53;10495584;28;20028;-68